Nyk Rumina — 9V7645 — position and weather

sailwx.info

Track history (hours):
 
Tides and Currents Weather Stations Pressure Air Temp Water Temp Dewpoint Dewpoint Depression Visibility Wind Speed Wind Dir Waves Ship Positions

Nyk Rumina

Last reported at 2018-Feb-21 19:53 UTC. Time now 2018-Feb-24 19:46 UTC.
Position N 09°40' W 079°43'.

Length 294 m; draft 11.2 m.

Type: Ship. MMSI: 563758000.

Date/timePositionNaut miles runAvg speedWind from/ knotsBaromVisibWave heightAir tempDewpointWater temp
2018-Feb-21 19:53N 09°40' W 079°43'511.1
2018-Feb-21 19:27N 09°36' W 079°46'511.3
2018-Feb-21 19:01N 09°32' W 079°49'4 6.8
2018-Feb-21 18:29N 09°29' W 079°52'  
2018-Feb-14 09:41N 32°18' W 117°41'317.7
2018-Feb-14 09:30N 32°21' W 117°43'816.8
2018-Feb-14 09:00N 32°29' W 117°46'816.5
2018-Feb-14 08:30N 32°37' W 117°49'816.7
2018-Feb-14 08:00N 32°45' W 117°53'1020.0
2018-Feb-14 07:30N 32°54' W 117°57'918.5
2018-Feb-14 07:00N 33°03' W 117°60'612.3
2018-Feb-14 06:30N 33°09' W 118°02'611.8
2018-Feb-14 06:00N 33°14' W 118°05'611.8
2018-Feb-14 05:30N 33°20' W 118°07'611.9
2018-Feb-14 04:59N 33°26' W 118°09'611.7
2018-Feb-14 04:30N 33°31' W 118°12'711.1
2018-Feb-14 03:50N 33°39' W 118°13'411.8
2018-Feb-14 03:31N 33°42' W 118°11'2 4.5
2018-Feb-14 03:00N 33°44' W 118°12'1 1.2
2018-Feb-14 02:30N 33°45' W 118°12'0 0.1
2018-Feb-14 02:00N 33°45' W 118°12'0 0.1
2018-Feb-14 01:30N 33°45' W 118°12'0 0.0
2018-Feb-14 01:00N 33°45' W 118°12'0 0.1
2018-Feb-14 00:30N 33°45' W 118°12'0 0.1
2018-Feb-13 23:57N 33°45' W 118°12'0 0.0
2018-Feb-13 23:30N 33°45' W 118°12'0 0.0
2018-Feb-13 23:00N 33°45' W 118°12'0 0.0
2018-Feb-13 22:30N 33°45' W 118°12'0 0.0
2018-Feb-13 22:00N 33°45' W 118°12'0 0.0
2018-Feb-13 21:30N 33°45' W 118°12'0 0.0
2018-Feb-13 21:00N 33°45' W 118°12'0 0.0
2018-Feb-13 20:30N 33°45' W 118°12'0 0.0
2018-Feb-13 20:00N 33°45' W 118°12'0 0.1
2018-Feb-13 19:30N 33°45' W 118°12'0 0.1
2018-Feb-13 19:00N 33°45' W 118°12'0 0.0
2018-Feb-13 18:30N 33°45' W 118°12'0 0.0
2018-Feb-13 18:00N 33°45' W 118°12'0 0.1
2018-Feb-13 17:30N 33°45' W 118°12'0 0.0
2018-Feb-13 16:57N 33°45' W 118°12'0 0.0
2018-Feb-13 16:30N 33°45' W 118°12'0 0.1
2018-Feb-13 16:00N 33°45' W 118°12'0 0.0
2018-Feb-13 15:30N 33°45' W 118°12'0 0.1
2018-Feb-13 15:00N 33°45' W 118°12'0 0.1
2018-Feb-13 14:30N 33°45' W 118°12'1 1.7
2018-Feb-13 14:01N 33°44' W 118°12'3 6.7
2018-Feb-13 13:30N 33°41' W 118°11'5 9.1
2018-Feb-13 13:00N 33°37' W 118°14'3 6.9
2018-Feb-13 12:30N 33°36' W 118°18'4 7.5
2018-Feb-13 12:00N 33°37' W 118°23'5 9.7
2018-Feb-13 11:30N 33°39' W 118°28'5 9.7
2018-Feb-13 11:00N 33°42' W 118°33'5 9.3
2018-Feb-13 10:30N 33°44' W 118°38'5 9.5
2018-Feb-13 10:00N 33°47' W 118°43'5 9.9
2018-Feb-13 09:30N 33°49' W 118°48'5 9.5
2018-Feb-13 09:00N 33°51' W 118°53'5 9.7
2018-Feb-13 08:30N 33°54' W 118°58'5 9.7
2018-Feb-13 08:00N 33°56' W 119°03'5 9.9
2018-Feb-13 07:30N 33°59' W 119°08'5 9.5
2018-Feb-13 07:00N 34°01' W 119°13'5 9.6
2018-Feb-13 06:30N 34°03' W 119°19'5 9.4
2018-Feb-13 06:00N 34°04' W 119°24'5 9.5
2018-Feb-13 05:30N 34°05' W 119°30'5 9.6
2018-Feb-13 05:00N 34°07' W 119°35'5 9.7
2018-Feb-13 04:29N 34°08' W 119°41'5 9.9
2018-Feb-13 03:57N 34°10' W 119°47'510.1
2018-Feb-13 03:28N 34°11' W 119°53'810.1
2018-Feb-13 02:42N 34°13' W 120°02'510.4
2018-Feb-13 02:14N 34°14' W 120°07'310.3
2018-Feb-13 01:59N 34°15' W 120°10'510.2
2018-Feb-13 01:29N 34°16' W 120°16'610.1
2018-Feb-13 00:54N 34°18' W 120°23'410.1
2018-Feb-13 00:29N 34°19' W 120°28'510.2
2018-Feb-12 23:57N 34°20' W 120°34'510.0
2018-Feb-12 23:29N 34°21' W 120°40'5 9.7
2018-Feb-12 23:00N 34°22' W 120°46'5 9.6
2018-Feb-12 22:30N 34°24' W 120°51'5 9.7
2018-Feb-12 22:00N 34°25' W 120°56'510.0
2018-Feb-12 21:30N 34°29' W 121°01'510.3
2018-Feb-12 21:00N 34°33' W 121°04'5 9.8
2018-Feb-12 20:30N 34°37' W 121°08'5 9.4
2018-Feb-12 20:00N 34°41' W 121°11'5 9.7
2018-Feb-12 19:30N 34°45' W 121°14'5 9.7
2018-Feb-12 19:00N 34°49' W 121°17'5 9.9
2018-Feb-12 18:30N 34°54' W 121°20'510.1
2018-Feb-12 18:00N 34°58' W 121°23'510.0
2018-Feb-12 17:30N 35°02' W 121°26'5 9.8
2018-Feb-12 17:00N 35°07' W 121°29'5 9.7
2018-Feb-12 16:30N 35°11' W 121°32'510.9
2018-Feb-12 16:00N 35°15' W 121°35'611.2
2018-Feb-12 15:30N 35°20' W 121°39'611.3
2018-Feb-12 15:00N 35°25' W 121°42'9211.3
2018-Feb-12 06:49N 36°48' W 122°33'411.2
2018-Feb-12 06:27N 36°51' W 122°35'511.4
2018-Feb-12 05:59N 36°56' W 122°37'611.5
2018-Feb-12 05:30N 37°02' W 122°39'611.8
2018-Feb-12 05:00N 37°07' W 122°42'611.5
2018-Feb-12 04:30N 37°13' W 122°44'611.6
2018-Feb-12 04:00N 37°19' W 122°43'611.5
2018-Feb-12 03:30N 37°24' W 122°44'611.1
2018-Feb-12 03:00N 37°30' W 122°44'510.9
2018-Feb-12 02:30N 37°35' W 122°44'510.7
2018-Feb-12 02:00N 37°41' W 122°43'510.9
2018-Feb-12 01:30N 37°46' W 122°40'714.0
2018-Feb-12 01:00N 37°48' W 122°32'713.5
2018-Feb-12 00:30N 37°49' W 122°24'4 7.8
2018-Feb-12 00:00N 37°48' W 122°19'0 0.1
2018-Feb-11 23:28N 37°48' W 122°19'0 0.0
2018-Feb-11 22:58N 37°48' W 122°19'0 0.0
2018-Feb-11 22:28N 37°48' W 122°19'0 0.0
2018-Feb-11 21:58N 37°48' W 122°19'0 0.0
2018-Feb-11 21:28N 37°48' W 122°19'0 0.0
2018-Feb-11 20:58N 37°48' W 122°19'0 0.0
2018-Feb-11 20:28N 37°48' W 122°19'0 0.0
2018-Feb-11 19:58N 37°48' W 122°19'  
Track history (hours):
 
Tides and Currents Weather Stations Pressure Air Temp Water Temp Dewpoint Dewpoint Depression Visibility Wind Speed Wind Dir Waves Ship Positions

Nyk Rumina

Last reported at 2018-Feb-21 19:53 UTC. Time now 2018-Feb-24 19:46 UTC.
Position N 09°40' W 079°43'.

Length 294 m; draft 11.2 m.

Type: Ship. MMSI: 563758000.

Date/timePositionNaut miles runAvg speedWind from/ knotsBaromVisibWave heightAir tempDewpointWater temp
2018-Feb-21 19:53N 09°40' W 079°43'511.1
2018-Feb-21 19:27N 09°36' W 079°46'511.3
2018-Feb-21 19:01N 09°32' W 079°49'4 6.8
2018-Feb-21 18:29N 09°29' W 079°52'  
2018-Feb-14 09:41N 32°18' W 117°41'317.7
2018-Feb-14 09:30N 32°21' W 117°43'816.8
2018-Feb-14 09:00N 32°29' W 117°46'816.5
2018-Feb-14 08:30N 32°37' W 117°49'816.7
2018-Feb-14 08:00N 32°45' W 117°53'1020.0
2018-Feb-14 07:30N 32°54' W 117°57'918.5
2018-Feb-14 07:00N 33°03' W 117°60'612.3
2018-Feb-14 06:30N 33°09' W 118°02'611.8
2018-Feb-14 06:00N 33°14' W 118°05'611.8
2018-Feb-14 05:30N 33°20' W 118°07'611.9
2018-Feb-14 04:59N 33°26' W 118°09'611.7
2018-Feb-14 04:30N 33°31' W 118°12'711.1
2018-Feb-14 03:50N 33°39' W 118°13'411.8
2018-Feb-14 03:31N 33°42' W 118°11'2 4.5
2018-Feb-14 03:00N 33°44' W 118°12'1 1.2
2018-Feb-14 02:30N 33°45' W 118°12'0 0.1
2018-Feb-14 02:00N 33°45' W 118°12'0 0.1
2018-Feb-14 01:30N 33°45' W 118°12'0 0.0
2018-Feb-14 01:00N 33°45' W 118°12'0 0.1
2018-Feb-14 00:30N 33°45' W 118°12'0 0.1
2018-Feb-13 23:57N 33°45' W 118°12'0 0.0
2018-Feb-13 23:30N 33°45' W 118°12'0 0.0
2018-Feb-13 23:00N 33°45' W 118°12'0 0.0
2018-Feb-13 22:30N 33°45' W 118°12'0 0.0
2018-Feb-13 22:00N 33°45' W 118°12'0 0.0
2018-Feb-13 21:30N 33°45' W 118°12'0 0.0
2018-Feb-13 21:00N 33°45' W 118°12'0 0.0
2018-Feb-13 20:30N 33°45' W 118°12'0 0.0
2018-Feb-13 20:00N 33°45' W 118°12'0 0.1
2018-Feb-13 19:30N 33°45' W 118°12'0 0.1
2018-Feb-13 19:00N 33°45' W 118°12'0 0.0
2018-Feb-13 18:30N 33°45' W 118°12'0 0.0
2018-Feb-13 18:00N 33°45' W 118°12'0 0.1
2018-Feb-13 17:30N 33°45' W 118°12'0 0.0
2018-Feb-13 16:57N 33°45' W 118°12'0 0.0
2018-Feb-13 16:30N 33°45' W 118°12'0 0.1
2018-Feb-13 16:00N 33°45' W 118°12'0 0.0
2018-Feb-13 15:30N 33°45' W 118°12'0 0.1
2018-Feb-13 15:00N 33°45' W 118°12'0 0.1
2018-Feb-13 14:30N 33°45' W 118°12'1 1.7
2018-Feb-13 14:01N 33°44' W 118°12'3 6.7
2018-Feb-13 13:30N 33°41' W 118°11'5 9.1
2018-Feb-13 13:00N 33°37' W 118°14'3 6.9
2018-Feb-13 12:30N 33°36' W 118°18'4 7.5
2018-Feb-13 12:00N 33°37' W 118°23'5 9.7
2018-Feb-13 11:30N 33°39' W 118°28'5 9.7
2018-Feb-13 11:00N 33°42' W 118°33'5 9.3
2018-Feb-13 10:30N 33°44' W 118°38'5 9.5
2018-Feb-13 10:00N 33°47' W 118°43'5 9.9
2018-Feb-13 09:30N 33°49' W 118°48'5 9.5
2018-Feb-13 09:00N 33°51' W 118°53'5 9.7
2018-Feb-13 08:30N 33°54' W 118°58'5 9.7
2018-Feb-13 08:00N 33°56' W 119°03'5 9.9
2018-Feb-13 07:30N 33°59' W 119°08'5 9.5
2018-Feb-13 07:00N 34°01' W 119°13'5 9.6
2018-Feb-13 06:30N 34°03' W 119°19'5 9.4
2018-Feb-13 06:00N 34°04' W 119°24'5 9.5
2018-Feb-13 05:30N 34°05' W 119°30'5 9.6
2018-Feb-13 05:00N 34°07' W 119°35'5 9.7
2018-Feb-13 04:29N 34°08' W 119°41'5 9.9
2018-Feb-13 03:57N 34°10' W 119°47'510.1
2018-Feb-13 03:28N 34°11' W 119°53'810.1
2018-Feb-13 02:42N 34°13' W 120°02'510.4
2018-Feb-13 02:14N 34°14' W 120°07'310.3
2018-Feb-13 01:59N 34°15' W 120°10'510.2
2018-Feb-13 01:29N 34°16' W 120°16'610.1
2018-Feb-13 00:54N 34°18' W 120°23'410.1
2018-Feb-13 00:29N 34°19' W 120°28'510.2
2018-Feb-12 23:57N 34°20' W 120°34'510.0
2018-Feb-12 23:29N 34°21' W 120°40'5 9.7
2018-Feb-12 23:00N 34°22' W 120°46'5 9.6
2018-Feb-12 22:30N 34°24' W 120°51'5 9.7
2018-Feb-12 22:00N 34°25' W 120°56'510.0
2018-Feb-12 21:30N 34°29' W 121°01'510.3
2018-Feb-12 21:00N 34°33' W 121°04'5 9.8
2018-Feb-12 20:30N 34°37' W 121°08'5 9.4
2018-Feb-12 20:00N 34°41' W 121°11'5 9.7
2018-Feb-12 19:30N 34°45' W 121°14'5 9.7
2018-Feb-12 19:00N 34°49' W 121°17'5 9.9
2018-Feb-12 18:30N 34°54' W 121°20'510.1
2018-Feb-12 18:00N 34°58' W 121°23'510.0
2018-Feb-12 17:30N 35°02' W 121°26'5 9.8
2018-Feb-12 17:00N 35°07' W 121°29'5 9.7
2018-Feb-12 16:30N 35°11' W 121°32'510.9
2018-Feb-12 16:00N 35°15' W 121°35'611.2
2018-Feb-12 15:30N 35°20' W 121°39'611.3
2018-Feb-12 15:00N 35°25' W 121°42'9211.3
2018-Feb-12 06:49N 36°48' W 122°33'411.2
2018-Feb-12 06:27N 36°51' W 122°35'511.4
2018-Feb-12 05:59N 36°56' W 122°37'611.5
2018-Feb-12 05:30N 37°02' W 122°39'611.8
2018-Feb-12 05:00N 37°07' W 122°42'611.5
2018-Feb-12 04:30N 37°13' W 122°44'611.6
2018-Feb-12 04:00N 37°19' W 122°43'611.5
2018-Feb-12 03:30N 37°24' W 122°44'611.1
2018-Feb-12 03:00N 37°30' W 122°44'510.9
2018-Feb-12 02:30N 37°35' W 122°44'510.7
2018-Feb-12 02:00N 37°41' W 122°43'510.9
2018-Feb-12 01:30N 37°46' W 122°40'714.0
2018-Feb-12 01:00N 37°48' W 122°32'713.5
2018-Feb-12 00:30N 37°49' W 122°24'4 7.8
2018-Feb-12 00:00N 37°48' W 122°19'0 0.1
2018-Feb-11 23:28N 37°48' W 122°19'0 0.0
2018-Feb-11 22:58N 37°48' W 122°19'0 0.0
2018-Feb-11 22:28N 37°48' W 122°19'0 0.0
2018-Feb-11 21:58N 37°48' W 122°19'0 0.0
2018-Feb-11 21:28N 37°48' W 122°19'0 0.0
2018-Feb-11 20:58N 37°48' W 122°19'0 0.0
2018-Feb-11 20:28N 37°48' W 122°19'0 0.0
2018-Feb-11 19:58N 37°48' W 122°19'  

Dump ship's entire track history